sensor_id;sensor_type;location;lat;lon;timestamp;P1;durP1;ratioP1;P2;durP2;ratioP2
58528;SDS011;44322;52.968;5.816;2023-07-29T00:01:41;12.63;;;9.43;;
58528;SDS011;44322;52.968;5.816;2023-07-29T00:04:07;9.10;;;7.00;;
58528;SDS011;44322;52.968;5.816;2023-07-29T00:06:34;12.43;;;9.63;;
58528;SDS011;44322;52.968;5.816;2023-07-29T00:09:00;11.15;;;8.23;;
58528;SDS011;44322;52.968;5.816;2023-07-29T00:11:26;10.13;;;7.53;;
58528;SDS011;44322;52.968;5.816;2023-07-29T00:13:52;8.57;;;6.45;;
58528;SDS011;44322;52.968;5.816;2023-07-29T00:16:18;8.60;;;6.95;;
58528;SDS011;44322;52.968;5.816;2023-07-29T00:18:47;7.38;;;5.78;;
58528;SDS011;44322;52.968;5.816;2023-07-29T00:21:13;7.65;;;5.22;;
58528;SDS011;44322;52.968;5.816;2023-07-29T00:23:39;9.57;;;6.90;;
58528;SDS011;44322;52.968;5.816;2023-07-29T00:26:04;9.80;;;7.55;;
58528;SDS011;44322;52.968;5.816;2023-07-29T00:28:30;9.05;;;6.38;;
58528;SDS011;44322;52.968;5.816;2023-07-29T00:30:56;10.07;;;6.40;;
58528;SDS011;44322;52.968;5.816;2023-07-29T00:33:21;8.57;;;5.85;;
58528;SDS011;44322;52.968;5.816;2023-07-29T00:35:47;8.50;;;5.88;;
58528;SDS011;44322;52.968;5.816;2023-07-29T00:38:13;8.35;;;5.70;;
58528;SDS011;44322;52.968;5.816;2023-07-29T00:40:38;9.02;;;5.03;;
58528;SDS011;44322;52.968;5.816;2023-07-29T00:43:04;7.30;;;4.88;;
58528;SDS011;44322;52.968;5.816;2023-07-29T00:45:29;7.10;;;5.30;;
58528;SDS011;44322;52.968;5.816;2023-07-29T00:47:57;7.00;;;4.53;;
58528;SDS011;44322;52.968;5.816;2023-07-29T00:50:22;7.45;;;5.38;;
58528;SDS011;44322;52.968;5.816;2023-07-29T00:52:49;7.10;;;4.65;;
58528;SDS011;44322;52.968;5.816;2023-07-29T00:55:14;6.82;;;4.72;;
58528;SDS011;44322;52.968;5.816;2023-07-29T00:57:40;8.07;;;5.50;;
58528;SDS011;44322;52.968;5.816;2023-07-29T01:00:07;7.85;;;5.60;;
58528;SDS011;44322;52.968;5.816;2023-07-29T01:02:35;7.70;;;5.00;;
58528;SDS011;44322;52.968;5.816;2023-07-29T01:05:00;6.72;;;5.03;;
58528;SDS011;44322;52.968;5.816;2023-07-29T01:09:58;8.68;;;5.15;;
58528;SDS011;44322;52.968;5.816;2023-07-29T01:12:51;5.68;;;4.97;;
58528;SDS011;44322;52.968;5.816;2023-07-29T01:15:24;8.00;;;5.97;;
58528;SDS011;44322;52.968;5.816;2023-07-29T01:17:54;6.82;;;5.32;;
58528;SDS011;44322;52.968;5.816;2023-07-29T01:20:21;8.93;;;6.22;;
58528;SDS011;44322;52.968;5.816;2023-07-29T01:22:50;7.97;;;6.13;;
58528;SDS011;44322;52.968;5.816;2023-07-29T01:25:15;9.48;;;7.72;;
58528;SDS011;44322;52.968;5.816;2023-07-29T01:27:42;9.73;;;7.40;;
58528;SDS011;44322;52.968;5.816;2023-07-29T01:30:10;11.68;;;8.40;;
58528;SDS011;44322;52.968;5.816;2023-07-29T01:38:07;9.32;;;7.28;;
58528;SDS011;44322;52.968;5.816;2023-07-29T01:40:35;11.00;;;7.95;;
58528;SDS011;44322;52.968;5.816;2023-07-29T01:43:01;11.10;;;8.13;;
58528;SDS011;44322;52.968;5.816;2023-07-29T01:45:27;10.52;;;7.85;;
58528;SDS011;44322;52.968;5.816;2023-07-29T01:47:57;8.13;;;7.18;;
58528;SDS011;44322;52.968;5.816;2023-07-29T01:50:22;14.98;;;8.00;;
58528;SDS011;44322;52.968;5.816;2023-07-29T01:52:48;9.05;;;6.85;;
58528;SDS011;44322;52.968;5.816;2023-07-29T01:55:13;8.30;;;5.90;;
58528;SDS011;44322;52.968;5.816;2023-07-29T01:57:39;9.48;;;5.50;;
58528;SDS011;44322;52.968;5.816;2023-07-29T02:00:05;7.10;;;4.45;;
58528;SDS011;44322;52.968;5.816;2023-07-29T02:02:39;6.15;;;4.07;;
58528;SDS011;44322;52.968;5.816;2023-07-29T02:05:05;6.63;;;4.13;;
58528;SDS011;44322;52.968;5.816;2023-07-29T02:07:30;5.13;;;3.78;;
58528;SDS011;44322;52.968;5.816;2023-07-29T02:09:56;5.07;;;3.10;;
58528;SDS011;44322;52.968;5.816;2023-07-29T02:12:22;7.32;;;3.35;;
58528;SDS011;44322;52.968;5.816;2023-07-29T02:14:47;5.63;;;2.97;;
58528;SDS011;44322;52.968;5.816;2023-07-29T02:17:13;5.30;;;3.08;;
58528;SDS011;44322;52.968;5.816;2023-07-29T02:19:38;5.05;;;2.80;;
58528;SDS011;44322;52.968;5.816;2023-07-29T02:22:04;4.78;;;2.00;;
58528;SDS011;44322;52.968;5.816;2023-07-29T02:24:30;3.55;;;1.65;;
58528;SDS011;44322;52.968;5.816;2023-07-29T02:26:55;7.13;;;2.25;;
58528;SDS011;44322;52.968;5.816;2023-07-29T02:29:21;5.82;;;2.40;;
58528;SDS011;44322;52.968;5.816;2023-07-29T02:31:47;4.38;;;2.20;;
58528;SDS011;44322;52.968;5.816;2023-07-29T02:34:12;4.85;;;2.10;;
58528;SDS011;44322;52.968;5.816;2023-07-29T02:36:39;6.40;;;2.10;;
58528;SDS011;44322;52.968;5.816;2023-07-29T02:39:05;7.53;;;2.20;;
58528;SDS011;44322;52.968;5.816;2023-07-29T02:41:31;5.28;;;2.00;;
58528;SDS011;44322;52.968;5.816;2023-07-29T02:43:57;3.83;;;1.95;;
58528;SDS011;44322;52.968;5.816;2023-07-29T02:46:22;6.28;;;2.90;;
58528;SDS011;44322;52.968;5.816;2023-07-29T02:48:49;4.10;;;2.08;;
58528;SDS011;44322;52.968;5.816;2023-07-29T02:51:16;4.90;;;2.35;;
58528;SDS011;44322;52.968;5.816;2023-07-29T02:53:41;4.50;;;2.00;;
58528;SDS011;44322;52.968;5.816;2023-07-29T02:56:07;4.90;;;2.08;;
58528;SDS011;44322;52.968;5.816;2023-07-29T02:58:34;4.78;;;1.95;;
58528;SDS011;44322;52.968;5.816;2023-07-29T03:01:04;5.23;;;2.27;;
58528;SDS011;44322;52.968;5.816;2023-07-29T03:03:30;5.13;;;2.28;;
58528;SDS011;44322;52.968;5.816;2023-07-29T03:06:01;6.55;;;2.58;;
58528;SDS011;44322;52.968;5.816;2023-07-29T03:08:28;5.00;;;1.85;;
58528;SDS011;44322;52.968;5.816;2023-07-29T03:10:54;4.43;;;1.80;;
58528;SDS011;44322;52.968;5.816;2023-07-29T03:13:20;3.58;;;1.55;;
58528;SDS011;44322;52.968;5.816;2023-07-29T03:15:45;5.05;;;2.30;;
58528;SDS011;44322;52.968;5.816;2023-07-29T03:18:11;3.88;;;2.10;;
58528;SDS011;44322;52.968;5.816;2023-07-29T03:20:37;6.22;;;2.08;;
58528;SDS011;44322;52.968;5.816;2023-07-29T03:23:02;6.85;;;2.30;;
58528;SDS011;44322;52.968;5.816;2023-07-29T03:25:28;10.38;;;2.35;;
58528;SDS011;44322;52.968;5.816;2023-07-29T03:27:54;7.90;;;2.60;;
58528;SDS011;44322;52.968;5.816;2023-07-29T03:30:20;2.33;;;1.90;;
58528;SDS011;44322;52.968;5.816;2023-07-29T03:32:47;5.93;;;2.10;;
58528;SDS011;44322;52.968;5.816;2023-07-29T03:35:13;4.28;;;1.70;;
58528;SDS011;44322;52.968;5.816;2023-07-29T03:37:39;6.95;;;2.30;;
58528;SDS011;44322;52.968;5.816;2023-07-29T03:40:05;6.15;;;1.95;;
58528;SDS011;44322;52.968;5.816;2023-07-29T03:42:31;6.10;;;2.33;;
58528;SDS011;44322;52.968;5.816;2023-07-29T03:44:57;4.63;;;2.03;;
58528;SDS011;44322;52.968;5.816;2023-07-29T03:47:23;6.53;;;2.00;;
58528;SDS011;44322;52.968;5.816;2023-07-29T03:49:49;3.50;;;1.88;;
58528;SDS011;44322;52.968;5.816;2023-07-29T03:52:18;5.55;;;2.55;;
58528;SDS011;44322;52.968;5.816;2023-07-29T03:54:44;7.45;;;2.90;;
58528;SDS011;44322;52.968;5.816;2023-07-29T03:57:09;4.45;;;2.33;;
58528;SDS011;44322;52.968;5.816;2023-07-29T03:59:35;5.22;;;2.30;;
58528;SDS011;44322;52.968;5.816;2023-07-29T04:02:00;7.47;;;2.42;;
58528;SDS011;44322;52.968;5.816;2023-07-29T04:04:26;5.78;;;2.70;;
58528;SDS011;44322;52.968;5.816;2023-07-29T04:06:52;7.95;;;2.78;;
58528;SDS011;44322;52.968;5.816;2023-07-29T04:09:17;4.45;;;2.60;;
58528;SDS011;44322;52.968;5.816;2023-07-29T04:11:43;6.18;;;2.53;;
58528;SDS011;44322;52.968;5.816;2023-07-29T04:14:08;8.82;;;2.40;;
58528;SDS011;44322;52.968;5.816;2023-07-29T04:16:34;5.75;;;2.47;;
58528;SDS011;44322;52.968;5.816;2023-07-29T04:18:59;7.22;;;2.80;;
58528;SDS011;44322;52.968;5.816;2023-07-29T04:21:25;6.93;;;3.30;;
58528;SDS011;44322;52.968;5.816;2023-07-29T04:23:51;6.68;;;3.05;;
58528;SDS011;44322;52.968;5.816;2023-07-29T04:26:17;4.75;;;3.05;;
58528;SDS011;44322;52.968;5.816;2023-07-29T04:28:42;8.27;;;3.17;;
58528;SDS011;44322;52.968;5.816;2023-07-29T04:31:08;8.05;;;3.47;;
58528;SDS011;44322;52.968;5.816;2023-07-29T04:33:33;8.45;;;3.53;;
58528;SDS011;44322;52.968;5.816;2023-07-29T04:35:59;7.88;;;3.03;;
58528;SDS011;44322;52.968;5.816;2023-07-29T04:38:29;7.38;;;2.75;;
58528;SDS011;44322;52.968;5.816;2023-07-29T04:40:56;5.50;;;3.08;;
58528;SDS011;44322;52.968;5.816;2023-07-29T04:43:22;7.65;;;2.88;;
58528;SDS011;44322;52.968;5.816;2023-07-29T04:45:48;11.05;;;2.83;;
58528;SDS011;44322;52.968;5.816;2023-07-29T04:48:13;5.40;;;2.70;;
58528;SDS011;44322;52.968;5.816;2023-07-29T04:50:39;8.40;;;2.90;;
58528;SDS011;44322;52.968;5.816;2023-07-29T04:53:05;8.40;;;2.90;;
58528;SDS011;44322;52.968;5.816;2023-07-29T04:55:30;8.18;;;2.75;;
58528;SDS011;44322;52.968;5.816;2023-07-29T04:57:56;6.45;;;3.30;;
58528;SDS011;44322;52.968;5.816;2023-07-29T05:00:22;10.68;;;3.40;;
58528;SDS011;44322;52.968;5.816;2023-07-29T05:02:47;6.68;;;3.25;;
58528;SDS011;44322;52.968;5.816;2023-07-29T05:05:13;7.30;;;3.55;;
58528;SDS011;44322;52.968;5.816;2023-07-29T05:07:38;10.75;;;4.05;;
58528;SDS011;44322;52.968;5.816;2023-07-29T05:10:04;6.53;;;3.60;;
58528;SDS011;44322;52.968;5.816;2023-07-29T05:12:31;9.07;;;4.00;;
58528;SDS011;44322;52.968;5.816;2023-07-29T05:14:58;6.88;;;3.58;;
58528;SDS011;44322;52.968;5.816;2023-07-29T05:17:23;8.32;;;3.85;;
58528;SDS011;44322;52.968;5.816;2023-07-29T05:19:49;9.93;;;3.95;;
58528;SDS011;44322;52.968;5.816;2023-07-29T05:22:14;7.90;;;3.47;;
58528;SDS011;44322;52.968;5.816;2023-07-29T05:24:40;7.93;;;3.58;;
58528;SDS011;44322;52.968;5.816;2023-07-29T05:27:06;8.93;;;3.60;;
58528;SDS011;44322;52.968;5.816;2023-07-29T05:29:33;6.93;;;3.45;;
58528;SDS011;44322;52.968;5.816;2023-07-29T05:31:59;8.57;;;3.00;;
58528;SDS011;44322;52.968;5.816;2023-07-29T05:34:26;6.63;;;2.90;;
58528;SDS011;44322;52.968;5.816;2023-07-29T05:36:52;7.22;;;3.17;;
58528;SDS011;44322;52.968;5.816;2023-07-29T05:39:18;9.02;;;2.92;;
58528;SDS011;44322;52.968;5.816;2023-07-29T05:41:44;9.13;;;3.50;;
58528;SDS011;44322;52.968;5.816;2023-07-29T05:44:09;6.45;;;3.25;;
58528;SDS011;44322;52.968;5.816;2023-07-29T05:46:35;11.52;;;3.28;;
58528;SDS011;44322;52.968;5.816;2023-07-29T05:49:00;5.95;;;2.60;;
58528;SDS011;44322;52.968;5.816;2023-07-29T05:51:26;9.25;;;2.83;;
58528;SDS011;44322;52.968;5.816;2023-07-29T05:53:52;8.00;;;2.88;;
58528;SDS011;44322;52.968;5.816;2023-07-29T05:56:17;5.85;;;2.60;;
58528;SDS011;44322;52.968;5.816;2023-07-29T05:58:43;5.30;;;2.90;;
58528;SDS011;44322;52.968;5.816;2023-07-29T06:01:09;8.50;;;3.45;;
58528;SDS011;44322;52.968;5.816;2023-07-29T06:03:35;8.02;;;2.92;;
58528;SDS011;44322;52.968;5.816;2023-07-29T06:06:00;9.60;;;3.22;;
58528;SDS011;44322;52.968;5.816;2023-07-29T06:08:26;8.75;;;3.10;;
58528;SDS011;44322;52.968;5.816;2023-07-29T06:10:53;8.38;;;2.95;;
58528;SDS011;44322;52.968;5.816;2023-07-29T06:13:19;9.30;;;3.47;;
58528;SDS011;44322;52.968;5.816;2023-07-29T06:15:44;8.77;;;3.30;;
58528;SDS011;44322;52.968;5.816;2023-07-29T06:18:10;7.72;;;2.85;;
58528;SDS011;44322;52.968;5.816;2023-07-29T06:20:38;7.57;;;3.25;;
58528;SDS011;44322;52.968;5.816;2023-07-29T06:23:04;8.05;;;3.22;;
58528;SDS011;44322;52.968;5.816;2023-07-29T06:25:30;8.90;;;3.05;;
58528;SDS011;44322;52.968;5.816;2023-07-29T06:27:56;8.68;;;3.17;;
58528;SDS011;44322;52.968;5.816;2023-07-29T06:30:23;5.63;;;2.97;;
58528;SDS011;44322;52.968;5.816;2023-07-29T06:32:49;7.07;;;2.90;;
58528;SDS011;44322;52.968;5.816;2023-07-29T06:35:14;10.27;;;3.10;;
58528;SDS011;44322;52.968;5.816;2023-07-29T06:37:40;6.50;;;3.03;;
58528;SDS011;44322;52.968;5.816;2023-07-29T06:40:05;9.55;;;2.88;;
58528;SDS011;44322;52.968;5.816;2023-07-29T06:42:31;9.00;;;2.70;;
58528;SDS011;44322;52.968;5.816;2023-07-29T06:44:57;8.80;;;3.00;;
58528;SDS011;44322;52.968;5.816;2023-07-29T06:47:23;7.97;;;2.85;;
58528;SDS011;44322;52.968;5.816;2023-07-29T06:49:48;8.27;;;3.03;;
58528;SDS011;44322;52.968;5.816;2023-07-29T06:52:14;6.47;;;2.88;;
58528;SDS011;44322;52.968;5.816;2023-07-29T06:54:39;5.05;;;2.50;;
58528;SDS011;44322;52.968;5.816;2023-07-29T06:57:05;5.07;;;2.60;;
58528;SDS011;44322;52.968;5.816;2023-07-29T06:59:31;7.70;;;2.80;;
58528;SDS011;44322;52.968;5.816;2023-07-29T07:01:56;9.52;;;2.90;;
58528;SDS011;44322;52.968;5.816;2023-07-29T07:04:22;10.73;;;3.33;;
58528;SDS011;44322;52.968;5.816;2023-07-29T07:06:47;9.35;;;2.97;;
58528;SDS011;44322;52.968;5.816;2023-07-29T07:09:13;7.55;;;3.10;;
58528;SDS011;44322;52.968;5.816;2023-07-29T07:11:39;8.35;;;2.78;;
58528;SDS011;44322;52.968;5.816;2023-07-29T07:14:04;8.20;;;2.95;;
58528;SDS011;44322;52.968;5.816;2023-07-29T07:16:30;7.90;;;2.78;;
58528;SDS011;44322;52.968;5.816;2023-07-29T07:18:56;8.73;;;3.17;;
58528;SDS011;44322;52.968;5.816;2023-07-29T07:21:22;7.30;;;3.03;;
58528;SDS011;44322;52.968;5.816;2023-07-29T07:23:49;9.35;;;3.83;;
58528;SDS011;44322;52.968;5.816;2023-07-29T07:28:40;10.60;;;3.08;;
58528;SDS011;44322;52.968;5.816;2023-07-29T07:31:06;5.68;;;3.10;;
58528;SDS011;44322;52.968;5.816;2023-07-29T07:33:32;5.72;;;2.60;;
58528;SDS011;44322;52.968;5.816;2023-07-29T07:35:57;9.30;;;2.90;;
58528;SDS011;44322;52.968;5.816;2023-07-29T07:38:23;6.55;;;2.90;;
58528;SDS011;44322;52.968;5.816;2023-07-29T07:40:52;7.68;;;2.92;;
58528;SDS011;44322;52.968;5.816;2023-07-29T07:43:21;5.00;;;2.53;;
58528;SDS011;44322;52.968;5.816;2023-07-29T07:45:47;8.30;;;2.60;;
58528;SDS011;44322;52.968;5.816;2023-07-29T07:48:12;9.93;;;3.10;;
58528;SDS011;44322;52.968;5.816;2023-07-29T07:50:38;7.75;;;2.65;;
58528;SDS011;44322;52.968;5.816;2023-07-29T07:53:05;6.47;;;2.42;;
58528;SDS011;44322;52.968;5.816;2023-07-29T07:55:30;4.80;;;2.45;;
58528;SDS011;44322;52.968;5.816;2023-07-29T07:57:56;6.22;;;2.58;;
58528;SDS011;44322;52.968;5.816;2023-07-29T08:00:21;7.90;;;2.90;;
58528;SDS011;44322;52.968;5.816;2023-07-29T08:02:47;6.90;;;3.20;;
58528;SDS011;44322;52.968;5.816;2023-07-29T08:05:13;6.25;;;2.35;;
58528;SDS011;44322;52.968;5.816;2023-07-29T08:07:38;7.65;;;2.88;;
58528;SDS011;44322;52.968;5.816;2023-07-29T08:10:04;9.00;;;3.20;;
58528;SDS011;44322;52.968;5.816;2023-07-29T08:12:30;4.47;;;2.38;;
58528;SDS011;44322;52.968;5.816;2023-07-29T08:14:56;12.57;;;3.72;;
58528;SDS011;44322;52.968;5.816;2023-07-29T08:17:22;5.63;;;2.40;;
58528;SDS011;44322;52.968;5.816;2023-07-29T08:19:47;6.03;;;2.70;;
58528;SDS011;44322;52.968;5.816;2023-07-29T08:22:13;7.18;;;2.80;;
58528;SDS011;44322;52.968;5.816;2023-07-29T08:24:38;6.55;;;3.08;;
58528;SDS011;44322;52.968;5.816;2023-07-29T08:27:04;9.30;;;3.22;;
58528;SDS011;44322;52.968;5.816;2023-07-29T08:29:30;9.82;;;3.47;;
58528;SDS011;44322;52.968;5.816;2023-07-29T08:31:55;7.78;;;3.45;;
58528;SDS011;44322;52.968;5.816;2023-07-29T08:34:21;6.95;;;3.05;;
58528;SDS011;44322;52.968;5.816;2023-07-29T08:36:46;4.90;;;2.53;;
58528;SDS011;44322;52.968;5.816;2023-07-29T08:39:12;7.20;;;2.95;;
58528;SDS011;44322;52.968;5.816;2023-07-29T08:41:41;6.45;;;2.67;;
58528;SDS011;44322;52.968;5.816;2023-07-29T08:44:25;9.93;;;3.08;;
58528;SDS011;44322;52.968;5.816;2023-07-29T08:46:52;5.30;;;3.08;;
58528;SDS011;44322;52.968;5.816;2023-07-29T08:49:19;8.50;;;3.00;;
58528;SDS011;44322;52.968;5.816;2023-07-29T08:51:48;5.20;;;2.80;;
58528;SDS011;44322;52.968;5.816;2023-07-29T08:54:14;7.03;;;2.75;;
58528;SDS011;44322;52.968;5.816;2023-07-29T08:56:40;8.85;;;3.20;;
58528;SDS011;44322;52.968;5.816;2023-07-29T08:59:07;5.35;;;2.70;;
58528;SDS011;44322;52.968;5.816;2023-07-29T09:01:33;9.13;;;2.80;;
58528;SDS011;44322;52.968;5.816;2023-07-29T09:03:59;5.10;;;2.63;;
58528;SDS011;44322;52.968;5.816;2023-07-29T09:06:25;8.18;;;2.63;;
58528;SDS011;44322;52.968;5.816;2023-07-29T09:08:53;5.68;;;2.75;;
58528;SDS011;44322;52.968;5.816;2023-07-29T09:11:21;7.65;;;2.50;;
58528;SDS011;44322;52.968;5.816;2023-07-29T09:13:47;8.13;;;3.10;;
58528;SDS011;44322;52.968;5.816;2023-07-29T09:16:13;4.20;;;2.38;;
58528;SDS011;44322;52.968;5.816;2023-07-29T09:18:38;6.85;;;2.65;;
58528;SDS011;44322;52.968;5.816;2023-07-29T09:21:04;5.97;;;2.45;;
58528;SDS011;44322;52.968;5.816;2023-07-29T09:23:42;9.70;;;2.80;;
58528;SDS011;44322;52.968;5.816;2023-07-29T09:26:08;8.43;;;2.53;;
58528;SDS011;44322;52.968;5.816;2023-07-29T09:28:35;6.18;;;2.58;;
58528;SDS011;44322;52.968;5.816;2023-07-29T09:31:04;6.15;;;3.25;;
58528;SDS011;44322;52.968;5.816;2023-07-29T09:33:34;7.13;;;2.40;;
58528;SDS011;44322;52.968;5.816;2023-07-29T09:36:03;4.88;;;2.20;;
58528;SDS011;44322;52.968;5.816;2023-07-29T09:38:34;8.52;;;2.30;;
58528;SDS011;44322;52.968;5.816;2023-07-29T09:41:01;5.53;;;2.55;;
58528;SDS011;44322;52.968;5.816;2023-07-29T09:43:30;6.50;;;2.90;;
58528;SDS011;44322;52.968;5.816;2023-07-29T09:46:00;8.20;;;3.17;;
58528;SDS011;44322;52.968;5.816;2023-07-29T09:48:27;6.22;;;2.88;;
58528;SDS011;44322;52.968;5.816;2023-07-29T09:50:54;5.47;;;2.83;;
58528;SDS011;44322;52.968;5.816;2023-07-29T09:53:20;7.83;;;2.90;;
58528;SDS011;44322;52.968;5.816;2023-07-29T09:55:47;7.82;;;2.85;;
58528;SDS011;44322;52.968;5.816;2023-07-29T09:58:19;6.63;;;2.30;;
58528;SDS011;44322;52.968;5.816;2023-07-29T10:00:46;4.35;;;2.53;;
58528;SDS011;44322;52.968;5.816;2023-07-29T10:03:12;6.50;;;2.47;;
58528;SDS011;44322;52.968;5.816;2023-07-29T10:05:39;4.35;;;1.95;;
58528;SDS011;44322;52.968;5.816;2023-07-29T10:08:05;5.28;;;2.00;;
58528;SDS011;44322;52.968;5.816;2023-07-29T10:10:34;4.82;;;2.30;;
58528;SDS011;44322;52.968;5.816;2023-07-29T10:12:59;6.45;;;2.20;;
58528;SDS011;44322;52.968;5.816;2023-07-29T10:15:27;4.45;;;2.08;;
58528;SDS011;44322;52.968;5.816;2023-07-29T10:17:53;6.15;;;2.08;;
58528;SDS011;44322;52.968;5.816;2023-07-29T10:20:19;6.45;;;1.88;;
58528;SDS011;44322;52.968;5.816;2023-07-29T10:22:46;5.80;;;1.80;;
58528;SDS011;44322;52.968;5.816;2023-07-29T10:25:21;4.28;;;1.90;;
58528;SDS011;44322;52.968;5.816;2023-07-29T10:27:49;7.05;;;2.00;;
58528;SDS011;44322;52.968;5.816;2023-07-29T10:30:18;5.15;;;1.83;;
58528;SDS011;44322;52.968;5.816;2023-07-29T10:32:43;5.78;;;2.08;;
58528;SDS011;44322;52.968;5.816;2023-07-29T10:35:13;6.40;;;2.20;;
58528;SDS011;44322;52.968;5.816;2023-07-29T10:37:40;5.25;;;1.85;;
58528;SDS011;44322;52.968;5.816;2023-07-29T10:40:07;5.77;;;1.90;;
58528;SDS011;44322;52.968;5.816;2023-07-29T10:42:34;5.60;;;2.10;;
58528;SDS011;44322;52.968;5.816;2023-07-29T10:45:06;4.97;;;1.85;;
58528;SDS011;44322;52.968;5.816;2023-07-29T10:47:42;5.75;;;1.88;;
58528;SDS011;44322;52.968;5.816;2023-07-29T10:50:16;4.32;;;1.92;;
58528;SDS011;44322;52.968;5.816;2023-07-29T10:52:50;4.03;;;2.22;;
58528;SDS011;44322;52.968;5.816;2023-07-29T10:55:24;3.03;;;2.08;;
58528;SDS011;44322;52.968;5.816;2023-07-29T10:57:51;6.07;;;2.00;;
58528;SDS011;44322;52.968;5.816;2023-07-29T11:00:18;4.57;;;2.40;;
58528;SDS011;44322;52.968;5.816;2023-07-29T11:02:46;4.53;;;2.65;;
58528;SDS011;44322;52.968;5.816;2023-07-29T11:05:22;4.10;;;2.13;;
58528;SDS011;44322;52.968;5.816;2023-07-29T11:07:48;4.35;;;2.20;;
58528;SDS011;44322;52.968;5.816;2023-07-29T11:10:14;8.65;;;2.90;;
58528;SDS011;44322;52.968;5.816;2023-07-29T11:12:50;4.75;;;2.53;;
58528;SDS011;44322;52.968;5.816;2023-07-29T11:15:24;4.70;;;2.73;;
58528;SDS011;44322;52.968;5.816;2023-07-29T11:20:23;10.35;;;3.72;;
58528;SDS011;44322;52.968;5.816;2023-07-29T11:25:17;5.80;;;2.72;;
58528;SDS011;44322;52.968;5.816;2023-07-29T11:27:43;5.47;;;2.75;;
58528;SDS011;44322;52.968;5.816;2023-07-29T11:30:10;5.28;;;3.05;;
58528;SDS011;44322;52.968;5.816;2023-07-29T11:32:37;7.32;;;2.55;;
58528;SDS011;44322;52.968;5.816;2023-07-29T11:35:04;4.13;;;1.77;;
58528;SDS011;44322;52.968;5.816;2023-07-29T11:37:34;3.70;;;1.70;;
58528;SDS011;44322;52.968;5.816;2023-07-29T11:40:00;2.47;;;1.67;;
58528;SDS011;44322;52.968;5.816;2023-07-29T11:42:26;4.05;;;1.83;;
58528;SDS011;44322;52.968;5.816;2023-07-29T11:44:52;3.55;;;2.00;;
58528;SDS011;44322;52.968;5.816;2023-07-29T11:47:17;2.65;;;1.60;;
58528;SDS011;44322;52.968;5.816;2023-07-29T11:49:43;6.97;;;2.08;;
58528;SDS011;44322;52.968;5.816;2023-07-29T11:52:09;6.00;;;2.20;;
58528;SDS011;44322;52.968;5.816;2023-07-29T11:54:35;4.38;;;1.77;;
58528;SDS011;44322;52.968;5.816;2023-07-29T11:57:11;4.50;;;2.35;;
58528;SDS011;44322;52.968;5.816;2023-07-29T11:59:37;4.70;;;2.03;;
58528;SDS011;44322;52.968;5.816;2023-07-29T12:02:13;4.95;;;1.95;;
58528;SDS011;44322;52.968;5.816;2023-07-29T12:04:41;5.70;;;2.30;;
58528;SDS011;44322;52.968;5.816;2023-07-29T12:07:07;8.82;;;2.30;;
58528;SDS011;44322;52.968;5.816;2023-07-29T12:09:36;5.95;;;2.30;;
58528;SDS011;44322;52.968;5.816;2023-07-29T12:12:06;10.88;;;3.08;;
58528;SDS011;44322;52.968;5.816;2023-07-29T12:14:32;5.35;;;2.65;;
58528;SDS011;44322;52.968;5.816;2023-07-29T12:17:02;5.40;;;2.58;;
58528;SDS011;44322;52.968;5.816;2023-07-29T12:19:33;5.82;;;2.70;;
58528;SDS011;44322;52.968;5.816;2023-07-29T12:22:03;4.85;;;2.40;;
58528;SDS011;44322;52.968;5.816;2023-07-29T12:24:30;5.20;;;2.20;;
58528;SDS011;44322;52.968;5.816;2023-07-29T12:26:56;8.52;;;2.72;;
58528;SDS011;44322;52.968;5.816;2023-07-29T12:29:22;5.75;;;2.50;;
58528;SDS011;44322;52.968;5.816;2023-07-29T12:31:48;4.72;;;2.45;;
58528;SDS011;44322;52.968;5.816;2023-07-29T12:34:21;6.82;;;2.42;;
58528;SDS011;44322;52.968;5.816;2023-07-29T12:36:48;5.55;;;2.33;;
58528;SDS011;44322;52.968;5.816;2023-07-29T12:41:44;5.30;;;1.63;;
58528;SDS011;44322;52.968;5.816;2023-07-29T12:44:10;3.90;;;1.80;;
58528;SDS011;44322;52.968;5.816;2023-07-29T12:46:35;3.67;;;1.80;;
58528;SDS011;44322;52.968;5.816;2023-07-29T12:49:01;4.82;;;1.95;;
58528;SDS011;44322;52.968;5.816;2023-07-29T12:51:26;4.97;;;2.13;;
58528;SDS011;44322;52.968;5.816;2023-07-29T12:53:53;4.70;;;2.00;;
58528;SDS011;44322;52.968;5.816;2023-07-29T12:56:19;5.73;;;2.07;;
58528;SDS011;44322;52.968;5.816;2023-07-29T12:58:44;3.35;;;1.83;;
58528;SDS011;44322;52.968;5.816;2023-07-29T13:01:10;5.80;;;2.05;;
58528;SDS011;44322;52.968;5.816;2023-07-29T13:03:38;5.07;;;1.80;;
58528;SDS011;44322;52.968;5.816;2023-07-29T13:06:04;5.15;;;2.30;;
58528;SDS011;44322;52.968;5.816;2023-07-29T13:08:30;4.45;;;2.45;;
58528;SDS011;44322;52.968;5.816;2023-07-29T13:10:56;4.00;;;2.10;;
58528;SDS011;44322;52.968;5.816;2023-07-29T13:13:21;4.65;;;1.92;;
58528;SDS011;44322;52.968;5.816;2023-07-29T13:15:47;4.15;;;2.10;;
58528;SDS011;44322;52.968;5.816;2023-07-29T13:18:12;3.25;;;2.08;;
58528;SDS011;44322;52.968;5.816;2023-07-29T13:20:38;7.50;;;2.70;;
58528;SDS011;44322;52.968;5.816;2023-07-29T13:23:03;4.63;;;1.85;;
58528;SDS011;44322;52.968;5.816;2023-07-29T13:25:29;4.93;;;1.63;;
58528;SDS011;44322;52.968;5.816;2023-07-29T13:27:55;3.65;;;1.80;;
58528;SDS011;44322;52.968;5.816;2023-07-29T13:30:20;3.70;;;1.90;;
58528;SDS011;44322;52.968;5.816;2023-07-29T13:32:46;4.55;;;1.48;;
58528;SDS011;44322;52.968;5.816;2023-07-29T13:35:11;4.25;;;2.13;;
58528;SDS011;44322;52.968;5.816;2023-07-29T13:37:37;4.80;;;2.00;;
58528;SDS011;44322;52.968;5.816;2023-07-29T13:40:02;5.47;;;2.00;;
58528;SDS011;44322;52.968;5.816;2023-07-29T13:42:28;3.67;;;1.83;;
58528;SDS011;44322;52.968;5.816;2023-07-29T13:44:54;4.18;;;1.80;;
58528;SDS011;44322;52.968;5.816;2023-07-29T13:47:20;3.70;;;2.03;;
58528;SDS011;44322;52.968;5.816;2023-07-29T13:49:45;3.95;;;2.08;;
58528;SDS011;44322;52.968;5.816;2023-07-29T13:52:12;5.85;;;2.13;;
58528;SDS011;44322;52.968;5.816;2023-07-29T13:54:39;3.72;;;2.00;;
58528;SDS011;44322;52.968;5.816;2023-07-29T13:57:04;3.30;;;1.90;;
58528;SDS011;44322;52.968;5.816;2023-07-29T13:59:32;4.90;;;1.77;;
58528;SDS011;44322;52.968;5.816;2023-07-29T14:01:57;7.43;;;2.00;;
58528;SDS011;44322;52.968;5.816;2023-07-29T14:04:23;3.78;;;2.30;;
58528;SDS011;44322;52.968;5.816;2023-07-29T14:06:48;3.53;;;1.98;;
58528;SDS011;44322;52.968;5.816;2023-07-29T14:09:14;5.25;;;1.67;;
58528;SDS011;44322;52.968;5.816;2023-07-29T14:11:40;5.72;;;1.80;;
58528;SDS011;44322;52.968;5.816;2023-07-29T14:14:05;4.43;;;1.65;;
58528;SDS011;44322;52.968;5.816;2023-07-29T14:16:31;4.80;;;1.73;;
58528;SDS011;44322;52.968;5.816;2023-07-29T14:18:57;5.18;;;1.88;;
58528;SDS011;44322;52.968;5.816;2023-07-29T14:21:23;3.55;;;1.70;;
58528;SDS011;44322;52.968;5.816;2023-07-29T14:23:48;4.68;;;1.70;;
58528;SDS011;44322;52.968;5.816;2023-07-29T14:26:14;3.45;;;1.70;;
58528;SDS011;44322;52.968;5.816;2023-07-29T14:28:39;4.28;;;1.83;;
58528;SDS011;44322;52.968;5.816;2023-07-29T14:31:05;4.90;;;1.88;;
58528;SDS011;44322;52.968;5.816;2023-07-29T14:33:31;4.25;;;1.65;;
58528;SDS011;44322;52.968;5.816;2023-07-29T14:35:56;2.70;;;1.50;;
58528;SDS011;44322;52.968;5.816;2023-07-29T14:38:22;4.47;;;1.58;;
58528;SDS011;44322;52.968;5.816;2023-07-29T14:40:47;4.63;;;1.50;;
58528;SDS011;44322;52.968;5.816;2023-07-29T14:43:13;2.42;;;1.42;;
58528;SDS011;44322;52.968;5.816;2023-07-29T14:45:38;3.42;;;1.33;;
58528;SDS011;44322;52.968;5.816;2023-07-29T14:48:04;2.42;;;1.10;;
58528;SDS011;44322;52.968;5.816;2023-07-29T14:50:30;3.53;;;1.30;;
58528;SDS011;44322;52.968;5.816;2023-07-29T14:52:55;2.80;;;1.20;;
58528;SDS011;44322;52.968;5.816;2023-07-29T14:55:21;2.78;;;1.23;;
58528;SDS011;44322;52.968;5.816;2023-07-29T14:57:46;1.35;;;1.10;;
58528;SDS011;44322;52.968;5.816;2023-07-29T15:00:12;3.15;;;1.27;;
58528;SDS011;44322;52.968;5.816;2023-07-29T15:02:38;3.95;;;1.20;;